sensor_id;sensor_type;location;lat;lon;timestamp;P1;durP1;ratioP1;P2;durP2;ratioP2
17482;SDS011;8858;52.308;20.994;2023-03-20T00:02:26;45.73;;;29.77;;
17482;SDS011;8858;52.308;20.994;2023-03-20T00:04:54;46.23;;;28.63;;
17482;SDS011;8858;52.308;20.994;2023-03-20T00:07:23;46.17;;;28.27;;
17482;SDS011;8858;52.308;20.994;2023-03-20T00:09:53;48.57;;;29.90;;
17482;SDS011;8858;52.308;20.994;2023-03-20T00:12:26;42.17;;;28.60;;
17482;SDS011;8858;52.308;20.994;2023-03-20T00:14:54;46.53;;;29.33;;
17482;SDS011;8858;52.308;20.994;2023-03-20T00:17:23;48.43;;;29.23;;
17482;SDS011;8858;52.308;20.994;2023-03-20T00:19:52;43.77;;;29.20;;
17482;SDS011;8858;52.308;20.994;2023-03-20T00:22:20;46.23;;;29.17;;
17482;SDS011;8858;52.308;20.994;2023-03-20T00:24:49;47.53;;;29.13;;
17482;SDS011;8858;52.308;20.994;2023-03-20T00:27:18;46.17;;;30.70;;
17482;SDS011;8858;52.308;20.994;2023-03-20T00:29:53;46.53;;;28.80;;
17482;SDS011;8858;52.308;20.994;2023-03-20T00:32:22;44.50;;;27.27;;
17482;SDS011;8858;52.308;20.994;2023-03-20T00:34:50;40.50;;;26.30;;
17482;SDS011;8858;52.308;20.994;2023-03-20T00:37:22;45.50;;;27.60;;
17482;SDS011;8858;52.308;20.994;2023-03-20T00:39:51;45.53;;;28.70;;
17482;SDS011;8858;52.308;20.994;2023-03-20T00:42:20;44.47;;;26.93;;
17482;SDS011;8858;52.308;20.994;2023-03-20T00:44:50;47.73;;;26.83;;
17482;SDS011;8858;52.308;20.994;2023-03-20T00:47:24;41.90;;;26.63;;
17482;SDS011;8858;52.308;20.994;2023-03-20T00:49:53;41.13;;;27.13;;
17482;SDS011;8858;52.308;20.994;2023-03-20T00:52:24;41.23;;;27.47;;
17482;SDS011;8858;52.308;20.994;2023-03-20T00:54:52;43.57;;;26.03;;
17482;SDS011;8858;52.308;20.994;2023-03-20T00:57:22;39.97;;;26.67;;
17482;SDS011;8858;52.308;20.994;2023-03-20T00:59:56;41.83;;;26.37;;
17482;SDS011;8858;52.308;20.994;2023-03-20T01:02:29;43.07;;;26.50;;
17482;SDS011;8858;52.308;20.994;2023-03-20T01:04:58;42.57;;;27.30;;
17482;SDS011;8858;52.308;20.994;2023-03-20T01:07:28;46.23;;;25.67;;
17482;SDS011;8858;52.308;20.994;2023-03-20T01:09:56;44.67;;;27.07;;
17482;SDS011;8858;52.308;20.994;2023-03-20T01:12:24;43.03;;;26.70;;
17482;SDS011;8858;52.308;20.994;2023-03-20T01:14:54;37.80;;;25.80;;
17482;SDS011;8858;52.308;20.994;2023-03-20T01:17:25;36.93;;;25.70;;
17482;SDS011;8858;52.308;20.994;2023-03-20T01:19:57;38.20;;;26.20;;
17482;SDS011;8858;52.308;20.994;2023-03-20T01:22:25;44.37;;;25.97;;
17482;SDS011;8858;52.308;20.994;2023-03-20T01:24:54;41.93;;;25.23;;
17482;SDS011;8858;52.308;20.994;2023-03-20T01:27:23;38.93;;;25.30;;
17482;SDS011;8858;52.308;20.994;2023-03-20T01:29:52;38.43;;;27.43;;
17482;SDS011;8858;52.308;20.994;2023-03-20T01:32:25;43.80;;;26.03;;
17482;SDS011;8858;52.308;20.994;2023-03-20T01:34:53;38.53;;;27.37;;
17482;SDS011;8858;52.308;20.994;2023-03-20T01:37:25;41.60;;;26.90;;
17482;SDS011;8858;52.308;20.994;2023-03-20T01:39:59;44.00;;;26.60;;
17482;SDS011;8858;52.308;20.994;2023-03-20T01:42:31;38.30;;;25.07;;
17482;SDS011;8858;52.308;20.994;2023-03-20T01:44:59;41.50;;;26.73;;
17482;SDS011;8858;52.308;20.994;2023-03-20T01:47:28;39.53;;;25.57;;
17482;SDS011;8858;52.308;20.994;2023-03-20T01:50:15;42.03;;;26.90;;
17482;SDS011;8858;52.308;20.994;2023-03-20T01:52:53;43.90;;;26.30;;
17482;SDS011;8858;52.308;20.994;2023-03-20T01:55:25;38.80;;;26.43;;
17482;SDS011;8858;52.308;20.994;2023-03-20T01:57:59;42.53;;;25.33;;
17482;SDS011;8858;52.308;20.994;2023-03-20T02:00:32;45.53;;;27.80;;
17482;SDS011;8858;52.308;20.994;2023-03-20T02:03:05;49.17;;;28.90;;
17482;SDS011;8858;52.308;20.994;2023-03-20T02:06:01;40.30;;;27.07;;
17482;SDS011;8858;52.308;20.994;2023-03-20T02:08:52;48.57;;;28.17;;
17482;SDS011;8858;52.308;20.994;2023-03-20T02:11:23;50.03;;;27.33;;
17482;SDS011;8858;52.308;20.994;2023-03-20T02:13:54;47.43;;;29.03;;
17482;SDS011;8858;52.308;20.994;2023-03-20T02:16:29;46.83;;;27.93;;
17482;SDS011;8858;52.308;20.994;2023-03-20T02:19:16;52.57;;;28.60;;
17482;SDS011;8858;52.308;20.994;2023-03-20T02:22:15;62.23;;;29.13;;
17482;SDS011;8858;52.308;20.994;2023-03-20T02:25:29;55.00;;;28.73;;
17482;SDS011;8858;52.308;20.994;2023-03-20T02:28:27;51.37;;;28.97;;
17482;SDS011;8858;52.308;20.994;2023-03-20T02:31:21;47.70;;;28.20;;
17482;SDS011;8858;52.308;20.994;2023-03-20T02:34:15;46.53;;;28.40;;
17482;SDS011;8858;52.308;20.994;2023-03-20T02:37:23;54.17;;;28.80;;
17482;SDS011;8858;52.308;20.994;2023-03-20T02:40:15;49.07;;;27.60;;
17482;SDS011;8858;52.308;20.994;2023-03-20T02:42:49;47.50;;;27.73;;
17482;SDS011;8858;52.308;20.994;2023-03-20T02:45:26;50.87;;;28.03;;
17482;SDS011;8858;52.308;20.994;2023-03-20T02:48:15;46.30;;;27.83;;
17482;SDS011;8858;52.308;20.994;2023-03-20T02:50:55;46.40;;;27.27;;
17482;SDS011;8858;52.308;20.994;2023-03-20T02:53:35;54.07;;;28.37;;
17482;SDS011;8858;52.308;20.994;2023-03-20T02:56:11;49.63;;;27.87;;
17482;SDS011;8858;52.308;20.994;2023-03-20T02:58:47;51.90;;;28.37;;
17482;SDS011;8858;52.308;20.994;2023-03-20T03:01:19;60.80;;;32.43;;
17482;SDS011;8858;52.308;20.994;2023-03-20T03:03:55;75.37;;;43.23;;
17482;SDS011;8858;52.308;20.994;2023-03-20T03:06:30;70.33;;;42.13;;
17482;SDS011;8858;52.308;20.994;2023-03-20T03:09:04;51.30;;;30.67;;
17482;SDS011;8858;52.308;20.994;2023-03-20T03:11:38;47.33;;;29.80;;
17482;SDS011;8858;52.308;20.994;2023-03-20T03:14:12;48.40;;;30.00;;
17482;SDS011;8858;52.308;20.994;2023-03-20T03:16:46;53.27;;;29.23;;
17482;SDS011;8858;52.308;20.994;2023-03-20T03:19:19;50.57;;;29.00;;
17482;SDS011;8858;52.308;20.994;2023-03-20T03:21:52;46.27;;;27.90;;
17482;SDS011;8858;52.308;20.994;2023-03-20T03:24:30;50.57;;;29.00;;
17482;SDS011;8858;52.308;20.994;2023-03-20T03:27:10;57.17;;;30.50;;
17482;SDS011;8858;52.308;20.994;2023-03-20T03:29:43;50.17;;;29.47;;
17482;SDS011;8858;52.308;20.994;2023-03-20T03:32:25;47.17;;;28.77;;
17482;SDS011;8858;52.308;20.994;2023-03-20T03:34:57;54.00;;;28.50;;
17482;SDS011;8858;52.308;20.994;2023-03-20T03:37:35;51.10;;;29.00;;
17482;SDS011;8858;52.308;20.994;2023-03-20T03:40:17;46.87;;;29.87;;
17482;SDS011;8858;52.308;20.994;2023-03-20T03:42:51;47.67;;;29.23;;
17482;SDS011;8858;52.308;20.994;2023-03-20T03:45:24;51.17;;;30.27;;
17482;SDS011;8858;52.308;20.994;2023-03-20T03:47:58;47.30;;;30.23;;
17482;SDS011;8858;52.308;20.994;2023-03-20T03:50:39;52.53;;;29.37;;
17482;SDS011;8858;52.308;20.994;2023-03-20T03:53:17;48.70;;;29.87;;
17482;SDS011;8858;52.308;20.994;2023-03-20T03:55:54;49.93;;;29.00;;
17482;SDS011;8858;52.308;20.994;2023-03-20T03:58:30;46.57;;;29.57;;
17482;SDS011;8858;52.308;20.994;2023-03-20T04:01:05;46.57;;;29.13;;
17482;SDS011;8858;52.308;20.994;2023-03-20T04:03:39;46.97;;;29.37;;
17482;SDS011;8858;52.308;20.994;2023-03-20T04:06:13;47.77;;;30.10;;
17482;SDS011;8858;52.308;20.994;2023-03-20T04:08:44;50.23;;;29.33;;
17482;SDS011;8858;52.308;20.994;2023-03-20T04:11:15;48.83;;;30.13;;
17482;SDS011;8858;52.308;20.994;2023-03-20T04:13:46;44.47;;;29.00;;
17482;SDS011;8858;52.308;20.994;2023-03-20T04:16:19;49.20;;;30.43;;
17482;SDS011;8858;52.308;20.994;2023-03-20T04:18:49;48.17;;;29.93;;
17482;SDS011;8858;52.308;20.994;2023-03-20T04:21:18;44.63;;;29.27;;
17482;SDS011;8858;52.308;20.994;2023-03-20T04:23:50;49.63;;;28.00;;
17482;SDS011;8858;52.308;20.994;2023-03-20T04:26:22;46.17;;;29.50;;
17482;SDS011;8858;52.308;20.994;2023-03-20T04:28:51;47.63;;;29.47;;
17482;SDS011;8858;52.308;20.994;2023-03-20T04:31:35;48.60;;;29.63;;
17482;SDS011;8858;52.308;20.994;2023-03-20T04:34:33;54.43;;;30.20;;
17482;SDS011;8858;52.308;20.994;2023-03-20T04:37:09;57.97;;;30.83;;
17482;SDS011;8858;52.308;20.994;2023-03-20T04:39:47;44.83;;;28.90;;
17482;SDS011;8858;52.308;20.994;2023-03-20T04:42:18;58.47;;;30.47;;
17482;SDS011;8858;52.308;20.994;2023-03-20T04:44:49;47.03;;;30.10;;
17482;SDS011;8858;52.308;20.994;2023-03-20T04:47:20;47.97;;;29.70;;
17482;SDS011;8858;52.308;20.994;2023-03-20T04:49:49;47.23;;;30.13;;
17482;SDS011;8858;52.308;20.994;2023-03-20T04:52:18;52.53;;;30.30;;
17482;SDS011;8858;52.308;20.994;2023-03-20T04:54:46;58.63;;;31.23;;
17482;SDS011;8858;52.308;20.994;2023-03-20T04:57:15;60.43;;;32.43;;
17482;SDS011;8858;52.308;20.994;2023-03-20T04:59:49;58.00;;;32.53;;
17482;SDS011;8858;52.308;20.994;2023-03-20T05:02:18;59.47;;;30.83;;
17482;SDS011;8858;52.308;20.994;2023-03-20T05:04:46;55.77;;;31.50;;
17482;SDS011;8858;52.308;20.994;2023-03-20T05:07:15;54.37;;;32.07;;
17482;SDS011;8858;52.308;20.994;2023-03-20T05:09:57;60.20;;;31.70;;
17482;SDS011;8858;52.308;20.994;2023-03-20T05:12:29;56.00;;;31.30;;
17482;SDS011;8858;52.308;20.994;2023-03-20T05:15:22;72.37;;;33.90;;
17482;SDS011;8858;52.308;20.994;2023-03-20T05:18:10;71.70;;;34.63;;
17482;SDS011;8858;52.308;20.994;2023-03-20T05:20:58;59.77;;;32.67;;
17482;SDS011;8858;52.308;20.994;2023-03-20T05:23:47;57.90;;;32.70;;
17482;SDS011;8858;52.308;20.994;2023-03-20T05:26:33;75.70;;;35.00;;
17482;SDS011;8858;52.308;20.994;2023-03-20T05:29:20;70.30;;;34.37;;
17482;SDS011;8858;52.308;20.994;2023-03-20T05:32:08;70.50;;;33.40;;
17482;SDS011;8858;52.308;20.994;2023-03-20T05:35:13;67.20;;;33.57;;
17482;SDS011;8858;52.308;20.994;2023-03-20T05:37:49;67.03;;;35.17;;
17482;SDS011;8858;52.308;20.994;2023-03-20T05:40:47;67.23;;;34.03;;
17482;SDS011;8858;52.308;20.994;2023-03-20T05:43:31;64.47;;;34.67;;
17482;SDS011;8858;52.308;20.994;2023-03-20T05:46:17;59.83;;;33.23;;
17482;SDS011;8858;52.308;20.994;2023-03-20T05:49:04;63.97;;;33.10;;
17482;SDS011;8858;52.308;20.994;2023-03-20T05:51:56;72.20;;;34.67;;
17482;SDS011;8858;52.308;20.994;2023-03-20T05:54:36;64.53;;;34.47;;
17482;SDS011;8858;52.308;20.994;2023-03-20T05:57:19;85.80;;;36.50;;
17482;SDS011;8858;52.308;20.994;2023-03-20T05:59:58;95.33;;;38.17;;
17482;SDS011;8858;52.308;20.994;2023-03-20T06:02:38;148.90;;;39.67;;
17482;SDS011;8858;52.308;20.994;2023-03-20T06:05:28;138.00;;;38.73;;
17482;SDS011;8858;52.308;20.994;2023-03-20T06:08:00;116.67;;;35.43;;
17482;SDS011;8858;52.308;20.994;2023-03-20T06:10:29;86.00;;;34.13;;
17482;SDS011;8858;52.308;20.994;2023-03-20T06:12:57;98.03;;;35.00;;
17482;SDS011;8858;52.308;20.994;2023-03-20T06:15:27;99.43;;;35.77;;
17482;SDS011;8858;52.308;20.994;2023-03-20T06:18:05;105.43;;;36.27;;
17482;SDS011;8858;52.308;20.994;2023-03-20T06:20:35;107.03;;;35.87;;
17482;SDS011;8858;52.308;20.994;2023-03-20T06:23:03;123.37;;;37.70;;
17482;SDS011;8858;52.308;20.994;2023-03-20T06:25:32;111.87;;;36.77;;
17482;SDS011;8858;52.308;20.994;2023-03-20T06:28:05;120.57;;;34.90;;
17482;SDS011;8858;52.308;20.994;2023-03-20T06:30:33;95.87;;;34.57;;
17482;SDS011;8858;52.308;20.994;2023-03-20T06:33:02;58.77;;;29.03;;
17482;SDS011;8858;52.308;20.994;2023-03-20T06:35:45;54.10;;;27.40;;
17482;SDS011;8858;52.308;20.994;2023-03-20T06:38:18;52.30;;;25.60;;
17482;SDS011;8858;52.308;20.994;2023-03-20T06:40:47;47.10;;;26.10;;
17482;SDS011;8858;52.308;20.994;2023-03-20T06:43:16;41.30;;;25.93;;
17482;SDS011;8858;52.308;20.994;2023-03-20T06:45:50;42.30;;;26.23;;
17482;SDS011;8858;52.308;20.994;2023-03-20T06:48:24;46.37;;;25.60;;
17482;SDS011;8858;52.308;20.994;2023-03-20T06:50:54;40.77;;;26.20;;
17482;SDS011;8858;52.308;20.994;2023-03-20T06:53:28;42.17;;;26.87;;
17482;SDS011;8858;52.308;20.994;2023-03-20T06:56:03;40.77;;;26.43;;
17482;SDS011;8858;52.308;20.994;2023-03-20T06:58:32;41.77;;;26.93;;
17482;SDS011;8858;52.308;20.994;2023-03-20T07:01:07;43.27;;;26.40;;
17482;SDS011;8858;52.308;20.994;2023-03-20T07:03:37;43.23;;;25.67;;
17482;SDS011;8858;52.308;20.994;2023-03-20T07:06:08;37.37;;;26.27;;
17482;SDS011;8858;52.308;20.994;2023-03-20T07:08:38;38.87;;;26.43;;
17482;SDS011;8858;52.308;20.994;2023-03-20T07:11:08;39.20;;;27.07;;
17482;SDS011;8858;52.308;20.994;2023-03-20T07:13:36;40.30;;;28.33;;
17482;SDS011;8858;52.308;20.994;2023-03-20T07:16:15;45.50;;;27.20;;
17482;SDS011;8858;52.308;20.994;2023-03-20T07:18:45;47.33;;;28.00;;
17482;SDS011;8858;52.308;20.994;2023-03-20T07:21:17;45.20;;;28.23;;
17482;SDS011;8858;52.308;20.994;2023-03-20T07:23:50;43.37;;;27.33;;
17482;SDS011;8858;52.308;20.994;2023-03-20T07:26:18;44.03;;;28.83;;
17482;SDS011;8858;52.308;20.994;2023-03-20T07:28:46;41.00;;;29.57;;
17482;SDS011;8858;52.308;20.994;2023-03-20T07:31:24;46.93;;;29.57;;
17482;SDS011;8858;52.308;20.994;2023-03-20T07:34:08;45.53;;;28.97;;
17482;SDS011;8858;52.308;20.994;2023-03-20T07:36:40;48.77;;;29.67;;
17482;SDS011;8858;52.308;20.994;2023-03-20T07:39:09;46.93;;;30.13;;
17482;SDS011;8858;52.308;20.994;2023-03-20T07:41:45;49.97;;;29.53;;
17482;SDS011;8858;52.308;20.994;2023-03-20T07:44:23;48.13;;;29.87;;
17482;SDS011;8858;52.308;20.994;2023-03-20T07:46:52;44.70;;;29.03;;
17482;SDS011;8858;52.308;20.994;2023-03-20T07:49:21;44.03;;;28.17;;
17482;SDS011;8858;52.308;20.994;2023-03-20T07:51:51;44.50;;;29.37;;
17482;SDS011;8858;52.308;20.994;2023-03-20T07:54:25;48.63;;;30.13;;
17482;SDS011;8858;52.308;20.994;2023-03-20T07:56:56;43.43;;;28.77;;
17482;SDS011;8858;52.308;20.994;2023-03-20T07:59:24;47.73;;;29.83;;
17482;SDS011;8858;52.308;20.994;2023-03-20T08:01:52;42.93;;;27.93;;
17482;SDS011;8858;52.308;20.994;2023-03-20T08:04:21;47.53;;;28.60;;
17482;SDS011;8858;52.308;20.994;2023-03-20T08:06:51;48.50;;;29.03;;
17482;SDS011;8858;52.308;20.994;2023-03-20T08:09:19;44.87;;;29.60;;
17482;SDS011;8858;52.308;20.994;2023-03-20T08:11:48;44.80;;;28.90;;
17482;SDS011;8858;52.308;20.994;2023-03-20T08:14:17;51.57;;;29.17;;
17482;SDS011;8858;52.308;20.994;2023-03-20T08:16:45;45.90;;;30.70;;
17482;SDS011;8858;52.308;20.994;2023-03-20T08:19:28;49.13;;;29.13;;
17482;SDS011;8858;52.308;20.994;2023-03-20T08:21:58;44.97;;;28.40;;
17482;SDS011;8858;52.308;20.994;2023-03-20T08:24:30;42.83;;;29.13;;
17482;SDS011;8858;52.308;20.994;2023-03-20T08:26:58;46.30;;;28.50;;
17482;SDS011;8858;52.308;20.994;2023-03-20T08:29:26;43.77;;;29.67;;
17482;SDS011;8858;52.308;20.994;2023-03-20T08:31:55;46.40;;;29.20;;
17482;SDS011;8858;52.308;20.994;2023-03-20T08:34:23;49.73;;;29.97;;
17482;SDS011;8858;52.308;20.994;2023-03-20T08:36:52;45.60;;;30.13;;
17482;SDS011;8858;52.308;20.994;2023-03-20T08:39:22;49.67;;;30.43;;
17482;SDS011;8858;52.308;20.994;2023-03-20T08:41:50;48.43;;;29.67;;
17482;SDS011;8858;52.308;20.994;2023-03-20T08:44:18;41.97;;;28.90;;
17482;SDS011;8858;52.308;20.994;2023-03-20T08:46:47;41.07;;;27.43;;
17482;SDS011;8858;52.308;20.994;2023-03-20T08:49:15;34.60;;;25.00;;
17482;SDS011;8858;52.308;20.994;2023-03-20T08:51:43;40.03;;;26.10;;
17482;SDS011;8858;52.308;20.994;2023-03-20T08:54:12;38.93;;;26.37;;
17482;SDS011;8858;52.308;20.994;2023-03-20T08:56:44;33.50;;;22.90;;
17482;SDS011;8858;52.308;20.994;2023-03-20T08:59:14;41.00;;;23.73;;
17482;SDS011;8858;52.308;20.994;2023-03-20T09:01:42;38.60;;;24.00;;
17482;SDS011;8858;52.308;20.994;2023-03-20T09:04:15;36.03;;;23.67;;
17482;SDS011;8858;52.308;20.994;2023-03-20T09:06:44;32.97;;;22.57;;
17482;SDS011;8858;52.308;20.994;2023-03-20T09:09:12;33.87;;;23.30;;
17482;SDS011;8858;52.308;20.994;2023-03-20T09:11:45;32.07;;;22.20;;
17482;SDS011;8858;52.308;20.994;2023-03-20T09:14:16;37.73;;;21.73;;
17482;SDS011;8858;52.308;20.994;2023-03-20T09:16:44;33.67;;;23.03;;
17482;SDS011;8858;52.308;20.994;2023-03-20T09:19:13;29.73;;;19.60;;
17482;SDS011;8858;52.308;20.994;2023-03-20T09:21:41;31.33;;;21.83;;
17482;SDS011;8858;52.308;20.994;2023-03-20T09:24:10;30.00;;;20.40;;
17482;SDS011;8858;52.308;20.994;2023-03-20T09:26:38;29.83;;;20.30;;
17482;SDS011;8858;52.308;20.994;2023-03-20T09:29:08;25.90;;;17.73;;
17482;SDS011;8858;52.308;20.994;2023-03-20T09:31:36;25.37;;;17.73;;
17482;SDS011;8858;52.308;20.994;2023-03-20T09:34:04;30.10;;;18.53;;
17482;SDS011;8858;52.308;20.994;2023-03-20T09:36:32;27.50;;;18.03;;
17482;SDS011;8858;52.308;20.994;2023-03-20T09:39:01;25.47;;;18.43;;
17482;SDS011;8858;52.308;20.994;2023-03-20T09:41:30;24.00;;;17.13;;
17482;SDS011;8858;52.308;20.994;2023-03-20T09:44:26;27.40;;;16.97;;
17482;SDS011;8858;52.308;20.994;2023-03-20T09:47:08;25.10;;;17.33;;
17482;SDS011;8858;52.308;20.994;2023-03-20T09:49:53;22.90;;;17.23;;
17482;SDS011;8858;52.308;20.994;2023-03-20T09:52:33;21.33;;;16.40;;
17482;SDS011;8858;52.308;20.994;2023-03-20T09:55:11;21.10;;;16.47;;
17482;SDS011;8858;52.308;20.994;2023-03-20T09:57:43;23.10;;;17.33;;
17482;SDS011;8858;52.308;20.994;2023-03-20T10:00:18;26.43;;;16.80;;
17482;SDS011;8858;52.308;20.994;2023-03-20T10:02:51;29.13;;;18.03;;
17482;SDS011;8858;52.308;20.994;2023-03-20T10:05:24;26.17;;;17.90;;
17482;SDS011;8858;52.308;20.994;2023-03-20T10:07:54;26.13;;;17.53;;
17482;SDS011;8858;52.308;20.994;2023-03-20T10:10:50;24.90;;;17.60;;
17482;SDS011;8858;52.308;20.994;2023-03-20T10:16:25;26.63;;;18.70;;
17482;SDS011;8858;52.308;20.994;2023-03-20T10:19:06;30.30;;;18.20;;
17482;SDS011;8858;52.308;20.994;2023-03-20T10:21:47;24.73;;;18.50;;
17482;SDS011;8858;52.308;20.994;2023-03-20T10:24:20;24.47;;;18.33;;
17482;SDS011;8858;52.308;20.994;2023-03-20T10:26:55;24.40;;;18.73;;
17482;SDS011;8858;52.308;20.994;2023-03-20T10:29:37;30.93;;;19.63;;
17482;SDS011;8858;52.308;20.994;2023-03-20T10:32:16;27.03;;;19.87;;
17482;SDS011;8858;52.308;20.994;2023-03-20T10:34:52;29.27;;;19.07;;
17482;SDS011;8858;52.308;20.994;2023-03-20T10:37:31;25.67;;;19.60;;
17482;SDS011;8858;52.308;20.994;2023-03-20T10:40:20;34.03;;;20.57;;
17482;SDS011;8858;52.308;20.994;2023-03-20T10:42:54;28.13;;;20.50;;
17482;SDS011;8858;52.308;20.994;2023-03-20T10:45:30;28.20;;;21.30;;
17482;SDS011;8858;52.308;20.994;2023-03-20T10:48:06;29.03;;;22.07;;
17482;SDS011;8858;52.308;20.994;2023-03-20T10:50:42;31.03;;;23.60;;
17482;SDS011;8858;52.308;20.994;2023-03-20T10:53:17;34.40;;;23.50;;
17482;SDS011;8858;52.308;20.994;2023-03-20T10:55:50;33.83;;;24.37;;
17482;SDS011;8858;52.308;20.994;2023-03-20T10:58:25;29.23;;;22.60;;
17482;SDS011;8858;52.308;20.994;2023-03-20T11:00:57;35.57;;;25.83;;
17482;SDS011;8858;52.308;20.994;2023-03-20T11:03:28;34.77;;;25.10;;
17482;SDS011;8858;52.308;20.994;2023-03-20T11:05:58;40.40;;;27.80;;
17482;SDS011;8858;52.308;20.994;2023-03-20T11:08:36;35.10;;;26.33;;
17482;SDS011;8858;52.308;20.994;2023-03-20T11:11:07;35.93;;;26.93;;
17482;SDS011;8858;52.308;20.994;2023-03-20T11:13:37;37.60;;;27.33;;
17482;SDS011;8858;52.308;20.994;2023-03-20T11:16:08;35.57;;;27.17;;
17482;SDS011;8858;52.308;20.994;2023-03-20T11:18:43;36.70;;;28.93;;
17482;SDS011;8858;52.308;20.994;2023-03-20T11:21:16;37.77;;;29.53;;
17482;SDS011;8858;52.308;20.994;2023-03-20T11:23:51;37.37;;;29.77;;
17482;SDS011;8858;52.308;20.994;2023-03-20T11:26:27;36.83;;;29.90;;
17482;SDS011;8858;52.308;20.994;2023-03-20T11:29:01;36.23;;;29.30;;
17482;SDS011;8858;52.308;20.994;2023-03-20T11:31:33;38.57;;;30.50;;
17482;SDS011;8858;52.308;20.994;2023-03-20T11:34:19;34.67;;;26.27;;
17482;SDS011;8858;52.308;20.994;2023-03-20T11:36:53;33.07;;;26.50;;
17482;SDS011;8858;52.308;20.994;2023-03-20T11:39:35;34.20;;;26.10;;
17482;SDS011;8858;52.308;20.994;2023-03-20T11:42:19;35.17;;;25.80;;
17482;SDS011;8858;52.308;20.994;2023-03-20T11:44:55;31.93;;;25.17;;
17482;SDS011;8858;52.308;20.994;2023-03-20T11:47:25;32.07;;;24.77;;
17482;SDS011;8858;52.308;20.994;2023-03-20T11:49:57;32.10;;;26.07;;
17482;SDS011;8858;52.308;20.994;2023-03-20T11:52:28;36.40;;;26.27;;
17482;SDS011;8858;52.308;20.994;2023-03-20T11:55:00;35.30;;;26.37;;
17482;SDS011;8858;52.308;20.994;2023-03-20T11:57:36;34.77;;;26.23;;
17482;SDS011;8858;52.308;20.994;2023-03-20T12:00:15;26.53;;;20.63;;
17482;SDS011;8858;52.308;20.994;2023-03-20T12:02:46;28.73;;;21.37;;
17482;SDS011;8858;52.308;20.994;2023-03-20T12:05:26;32.13;;;20.80;;
17482;SDS011;8858;52.308;20.994;2023-03-20T12:07:57;25.53;;;18.83;;
17482;SDS011;8858;52.308;20.994;2023-03-20T12:10:31;27.10;;;21.90;;
17482;SDS011;8858;52.308;20.994;2023-03-20T12:13:05;28.20;;;23.03;;
17482;SDS011;8858;52.308;20.994;2023-03-20T12:15:42;27.40;;;22.77;;
17482;SDS011;8858;52.308;20.994;2023-03-20T12:18:14;26.50;;;22.43;;
17482;SDS011;8858;52.308;20.994;2023-03-20T12:20:56;31.13;;;22.60;;
17482;SDS011;8858;52.308;20.994;2023-03-20T12:23:33;26.55;;;20.63;;
17482;SDS011;8858;52.308;20.994;2023-03-20T12:26:05;20.60;;;17.00;;
17482;SDS011;8858;52.308;20.994;2023-03-20T12:28:39;25.42;;;17.27;;
17482;SDS011;8858;52.308;20.994;2023-03-20T12:31:16;33.60;;;17.67;;
17482;SDS011;8858;52.308;20.994;2023-03-20T12:33:51;26.98;;;17.38;;
17482;SDS011;8858;52.308;20.994;2023-03-20T12:36:27;21.52;;;16.88;;
17482;SDS011;8858;52.308;20.994;2023-03-20T12:38:58;21.65;;;16.85;;
17482;SDS011;8858;52.308;20.994;2023-03-20T12:41:32;30.35;;;16.58;;
17482;SDS011;8858;52.308;20.994;2023-03-20T12:44:12;20.20;;;14.82;;
17482;SDS011;8858;52.308;20.994;2023-03-20T12:46:49;23.35;;;16.40;;
17482;SDS011;8858;52.308;20.994;2023-03-20T12:49:26;23.13;;;16.63;;
17482;SDS011;8858;52.308;20.994;2023-03-20T12:52:08;20.73;;;16.65;;
17482;SDS011;8858;52.308;20.994;2023-03-20T12:54:47;22.58;;;16.40;;
17482;SDS011;8858;52.308;20.994;2023-03-20T12:57:32;22.10;;;17.02;;
17482;SDS011;8858;52.308;20.994;2023-03-20T13:00:11;22.48;;;15.60;;
17482;SDS011;8858;52.308;20.994;2023-03-20T13:02:51;18.35;;;14.77;;
17482;SDS011;8858;52.308;20.994;2023-03-20T13:05:32;18.75;;;12.18;;
17482;SDS011;8858;52.308;20.994;2023-03-20T13:08:16;29.73;;;12.25;;
17482;SDS011;8858;52.308;20.994;2023-03-20T13:11:05;16.65;;;11.70;;
17482;SDS011;8858;52.308;20.994;2023-03-20T13:13:42;24.90;;;15.32;;
17482;SDS011;8858;52.308;20.994;2023-03-20T13:16:22;27.15;;;20.65;;
17482;SDS011;8858;52.308;20.994;2023-03-20T13:19:02;28.85;;;20.45;;
17482;SDS011;8858;52.308;20.994;2023-03-20T13:21:39;24.55;;;21.38;;
17482;SDS011;8858;52.308;20.994;2023-03-20T13:24:28;43.97;;;21.00;;
17482;SDS011;8858;52.308;20.994;2023-03-20T13:27:06;24.90;;;20.55;;
17482;SDS011;8858;52.308;20.994;2023-03-20T13:29:44;20.67;;;15.23;;
17482;SDS011;8858;52.308;20.994;2023-03-20T13:32:24;19.87;;;16.60;;
17482;SDS011;8858;52.308;20.994;2023-03-20T13:35:04;23.33;;;17.90;;
17482;SDS011;8858;52.308;20.994;2023-03-20T13:37:50;23.83;;;17.83;;
17482;SDS011;8858;52.308;20.994;2023-03-20T13:40:24;27.33;;;18.40;;
17482;SDS011;8858;52.308;20.994;2023-03-20T13:42:56;27.77;;;18.93;;
17482;SDS011;8858;52.308;20.994;2023-03-20T13:45:32;28.27;;;18.87;;
17482;SDS011;8858;52.308;20.994;2023-03-20T13:48:06;26.70;;;19.00;;
17482;SDS011;8858;52.308;20.994;2023-03-20T13:50:48;22.67;;;16.10;;
17482;SDS011;8858;52.308;20.994;2023-03-20T13:53:24;18.07;;;14.80;;
17482;SDS011;8858;52.308;20.994;2023-03-20T13:56:00;18.00;;;14.63;;
17482;SDS011;8858;52.308;20.994;2023-03-20T13:58:45;17.77;;;15.13;;
17482;SDS011;8858;52.308;20.994;2023-03-20T14:01:24;17.70;;;15.30;;
17482;SDS011;8858;52.308;20.994;2023-03-20T14:04:02;17.30;;;15.43;;
17482;SDS011;8858;52.308;20.994;2023-03-20T14:09:27;22.27;;;15.73;;
17482;SDS011;8858;52.308;20.994;2023-03-20T14:12:02;20.03;;;15.53;;
17482;SDS011;8858;52.308;20.994;2023-03-20T14:14:38;24.07;;;16.47;;
17482;SDS011;8858;52.308;20.994;2023-03-20T14:17:16;21.00;;;16.73;;
17482;SDS011;8858;52.308;20.994;2023-03-20T14:19:47;18.70;;;16.33;;
17482;SDS011;8858;52.308;20.994;2023-03-20T14:22:17;21.57;;;17.13;;
17482;SDS011;8858;52.308;20.994;2023-03-20T14:24:53;20.80;;;16.63;;
17482;SDS011;8858;52.308;20.994;2023-03-20T14:27:26;23.47;;;18.57;;
17482;SDS011;8858;52.308;20.994;2023-03-20T14:33:05;22.13;;;19.83;;
17482;SDS011;8858;52.308;20.994;2023-03-20T14:35:35;25.77;;;19.93;;
17482;SDS011;8858;52.308;20.994;2023-03-20T14:38:09;26.73;;;20.80;;
17482;SDS011;8858;52.308;20.994;2023-03-20T14:40:55;25.10;;;21.30;;
17482;SDS011;8858;52.308;20.994;2023-03-20T14:43:39;26.73;;;19.33;;
17482;SDS011;8858;52.308;20.994;2023-03-20T14:46:23;24.23;;;20.43;;
17482;SDS011;8858;52.308;20.994;2023-03-20T14:48:58;22.20;;;19.80;;
17482;SDS011;8858;52.308;20.994;2023-03-20T14:51:43;20.03;;;16.10;;
17482;SDS011;8858;52.308;20.994;2023-03-20T14:54:24;15.17;;;13.53;;
17482;SDS011;8858;52.308;20.994;2023-03-20T14:56:54;15.17;;;13.20;;
17482;SDS011;8858;52.308;20.994;2023-03-20T14:59:36;14.43;;;12.10;;
17482;SDS011;8858;52.308;20.994;2023-03-20T15:02:04;11.03;;;9.07;;
17482;SDS011;8858;52.308;20.994;2023-03-20T15:04:38;9.90;;;7.77;;
17482;SDS011;8858;52.308;20.994;2023-03-20T15:07:09;8.47;;;6.07;;
17482;SDS011;8858;52.308;20.994;2023-03-20T15:09:44;5.07;;;4.57;;
17482;SDS011;8858;52.308;20.994;2023-03-20T15:12:16;6.50;;;5.27;;
17482;SDS011;8858;52.308;20.994;2023-03-20T15:14:49;6.13;;;5.13;;
17482;SDS011;8858;52.308;20.994;2023-03-20T15:17:23;6.07;;;5.27;;